sensor_id;sensor_type;location;lat;lon;timestamp;P1;durP1;ratioP1;P2;durP2;ratioP2
67571;SDS011;54397;47.506;19.158;2023-08-08T00:01:00;0.70;;;0.70;;
67571;SDS011;54397;47.506;19.158;2023-08-08T00:04:24;0.45;;;0.45;;
67571;SDS011;54397;47.506;19.158;2023-08-08T00:07:46;0.73;;;0.50;;
67571;SDS011;54397;47.506;19.158;2023-08-08T00:11:10;0.40;;;0.40;;
67571;SDS011;54397;47.506;19.158;2023-08-08T00:14:34;2.90;;;0.77;;
67571;SDS011;54397;47.506;19.158;2023-08-08T00:17:56;0.50;;;0.50;;
67571;SDS011;54397;47.506;19.158;2023-08-08T00:21:17;1.92;;;0.60;;
67571;SDS011;54397;47.506;19.158;2023-08-08T00:24:39;0.88;;;0.70;;
67571;SDS011;54397;47.506;19.158;2023-08-08T00:28:01;0.40;;;0.40;;
67571;SDS011;54397;47.506;19.158;2023-08-08T00:31:22;1.38;;;0.60;;
67571;SDS011;54397;47.506;19.158;2023-08-08T00:34:44;0.30;;;0.30;;
67571;SDS011;54397;47.506;19.158;2023-08-08T00:38:08;0.40;;;0.35;;
67571;SDS011;54397;47.506;19.158;2023-08-08T00:41:34;0.40;;;0.40;;
67571;SDS011;54397;47.506;19.158;2023-08-08T00:44:56;0.82;;;0.60;;
67571;SDS011;54397;47.506;19.158;2023-08-08T00:48:25;0.60;;;0.60;;
67571;SDS011;54397;47.506;19.158;2023-08-08T00:51:46;0.68;;;0.60;;
67571;SDS011;54397;47.506;19.158;2023-08-08T00:55:11;0.73;;;0.60;;
67571;SDS011;54397;47.506;19.158;2023-08-08T00:58:36;1.23;;;0.60;;
67571;SDS011;54397;47.506;19.158;2023-08-08T01:01:58;0.45;;;0.45;;
67571;SDS011;54397;47.506;19.158;2023-08-08T01:05:20;0.60;;;0.60;;
67571;SDS011;54397;47.506;19.158;2023-08-08T01:08:45;0.40;;;0.40;;
67571;SDS011;54397;47.506;19.158;2023-08-08T01:12:11;1.52;;;0.68;;
67571;SDS011;54397;47.506;19.158;2023-08-08T01:15:35;0.60;;;0.60;;
67571;SDS011;54397;47.506;19.158;2023-08-08T01:19:00;0.60;;;0.60;;
67571;SDS011;54397;47.506;19.158;2023-08-08T01:22:30;1.05;;;1.00;;
67571;SDS011;54397;47.506;19.158;2023-08-08T01:25:57;0.75;;;0.75;;
67571;SDS011;54397;47.506;19.158;2023-08-08T01:29:22;0.98;;;0.88;;
67571;SDS011;54397;47.506;19.158;2023-08-08T01:32:46;0.63;;;0.63;;
67571;SDS011;54397;47.506;19.158;2023-08-08T01:36:13;1.40;;;0.70;;
67571;SDS011;54397;47.506;19.158;2023-08-08T01:39:42;0.50;;;0.50;;
67571;SDS011;54397;47.506;19.158;2023-08-08T01:43:08;1.15;;;0.50;;
67571;SDS011;54397;47.506;19.158;2023-08-08T01:46:35;8.82;;;1.10;;
67571;SDS011;54397;47.506;19.158;2023-08-08T01:50:00;0.82;;;0.70;;
67571;SDS011;54397;47.506;19.158;2023-08-08T01:53:24;2.00;;;0.80;;
67571;SDS011;54397;47.506;19.158;2023-08-08T01:56:46;2.05;;;1.15;;
67571;SDS011;54397;47.506;19.158;2023-08-08T02:00:07;14.73;;;1.10;;
67571;SDS011;54397;47.506;19.158;2023-08-08T02:03:30;2.45;;;0.93;;
67571;SDS011;54397;47.506;19.158;2023-08-08T02:06:52;2.88;;;0.70;;
67571;SDS011;54397;47.506;19.158;2023-08-08T02:10:14;1.65;;;0.60;;
67571;SDS011;54397;47.506;19.158;2023-08-08T02:13:38;2.20;;;1.58;;
67571;SDS011;54397;47.506;19.158;2023-08-08T02:17:00;1.50;;;1.40;;
67571;SDS011;54397;47.506;19.158;2023-08-08T02:20:21;1.00;;;0.90;;
67571;SDS011;54397;47.506;19.158;2023-08-08T02:23:43;0.85;;;0.80;;
67571;SDS011;54397;47.506;19.158;2023-08-08T02:27:05;0.80;;;0.80;;
67571;SDS011;54397;47.506;19.158;2023-08-08T02:30:31;0.82;;;0.70;;
67571;SDS011;54397;47.506;19.158;2023-08-08T02:33:52;3.05;;;0.90;;
67571;SDS011;54397;47.506;19.158;2023-08-08T02:37:16;1.20;;;0.80;;
67571;SDS011;54397;47.506;19.158;2023-08-08T02:40:37;1.10;;;1.00;;
67571;SDS011;54397;47.506;19.158;2023-08-08T02:44:02;1.38;;;1.13;;
67571;SDS011;54397;47.506;19.158;2023-08-08T02:47:26;1.58;;;1.00;;
67571;SDS011;54397;47.506;19.158;2023-08-08T02:50:50;1.10;;;1.00;;
67571;SDS011;54397;47.506;19.158;2023-08-08T02:54:11;4.35;;;2.50;;
67571;SDS011;54397;47.506;19.158;2023-08-08T02:57:35;1.10;;;0.85;;
67571;SDS011;54397;47.506;19.158;2023-08-08T03:00:59;0.90;;;0.90;;
67571;SDS011;54397;47.506;19.158;2023-08-08T03:04:23;1.08;;;0.98;;
67571;SDS011;54397;47.506;19.158;2023-08-08T03:07:45;0.73;;;0.73;;
67571;SDS011;54397;47.506;19.158;2023-08-08T03:11:07;1.55;;;0.90;;
67571;SDS011;54397;47.506;19.158;2023-08-08T03:14:31;3.72;;;1.17;;
67571;SDS011;54397;47.506;19.158;2023-08-08T03:17:57;0.90;;;0.90;;
67571;SDS011;54397;47.506;19.158;2023-08-08T03:21:19;0.80;;;0.80;;
67571;SDS011;54397;47.506;19.158;2023-08-08T03:24:43;0.95;;;0.90;;
67571;SDS011;54397;47.506;19.158;2023-08-08T03:28:07;1.38;;;1.13;;
67571;SDS011;54397;47.506;19.158;2023-08-08T03:31:29;1.20;;;1.00;;
67571;SDS011;54397;47.506;19.158;2023-08-08T03:34:53;1.38;;;0.88;;
67571;SDS011;54397;47.506;19.158;2023-08-08T03:38:20;0.82;;;0.80;;
67571;SDS011;54397;47.506;19.158;2023-08-08T03:41:42;0.90;;;0.90;;
67571;SDS011;54397;47.506;19.158;2023-08-08T03:45:04;6.28;;;1.10;;
67571;SDS011;54397;47.506;19.158;2023-08-08T03:48:26;1.67;;;1.00;;
67571;SDS011;54397;47.506;19.158;2023-08-08T03:51:50;1.17;;;1.17;;
67571;SDS011;54397;47.506;19.158;2023-08-08T03:55:12;1.27;;;1.20;;
67571;SDS011;54397;47.506;19.158;2023-08-08T03:58:37;0.90;;;0.90;;
67571;SDS011;54397;47.506;19.158;2023-08-08T04:01:59;1.80;;;1.13;;
67571;SDS011;54397;47.506;19.158;2023-08-08T04:05:24;1.58;;;1.10;;
67571;SDS011;54397;47.506;19.158;2023-08-08T04:08:50;0.85;;;0.85;;
67571;SDS011;54397;47.506;19.158;2023-08-08T04:12:11;1.17;;;0.90;;
67571;SDS011;54397;47.506;19.158;2023-08-08T04:15:33;0.75;;;0.75;;
67571;SDS011;54397;47.506;19.158;2023-08-08T04:18:55;1.38;;;1.00;;
67571;SDS011;54397;47.506;19.158;2023-08-08T04:22:20;3.83;;;1.10;;
67571;SDS011;54397;47.506;19.158;2023-08-08T04:25:42;1.30;;;1.00;;
67571;SDS011;54397;47.506;19.158;2023-08-08T04:29:06;2.13;;;1.00;;
67571;SDS011;54397;47.506;19.158;2023-08-08T04:32:28;1.25;;;0.80;;
67571;SDS011;54397;47.506;19.158;2023-08-08T04:35:50;1.90;;;1.27;;
67571;SDS011;54397;47.506;19.158;2023-08-08T04:39:12;1.10;;;1.00;;
67571;SDS011;54397;47.506;19.158;2023-08-08T04:42:33;2.22;;;0.98;;
67571;SDS011;54397;47.506;19.158;2023-08-08T04:45:55;0.60;;;0.60;;
67571;SDS011;54397;47.506;19.158;2023-08-08T04:49:17;3.03;;;1.63;;
67571;SDS011;54397;47.506;19.158;2023-08-08T04:52:39;1.08;;;0.93;;
67571;SDS011;54397;47.506;19.158;2023-08-08T04:56:00;4.15;;;1.02;;
67571;SDS011;54397;47.506;19.158;2023-08-08T04:59:22;3.10;;;1.02;;
67571;SDS011;54397;47.506;19.158;2023-08-08T05:02:47;1.35;;;1.25;;
67571;SDS011;54397;47.506;19.158;2023-08-08T05:06:09;1.38;;;1.00;;
67571;SDS011;54397;47.506;19.158;2023-08-08T05:09:31;2.15;;;1.30;;
67571;SDS011;54397;47.506;19.158;2023-08-08T05:12:58;3.53;;;1.50;;
67571;SDS011;54397;47.506;19.158;2023-08-08T05:16:19;1.70;;;1.20;;
67571;SDS011;54397;47.506;19.158;2023-08-08T05:19:41;1.65;;;1.17;;
67571;SDS011;54397;47.506;19.158;2023-08-08T05:23:05;2.17;;;1.35;;
67571;SDS011;54397;47.506;19.158;2023-08-08T05:26:27;2.13;;;1.38;;
67571;SDS011;54397;47.506;19.158;2023-08-08T05:29:48;1.95;;;1.30;;
67571;SDS011;54397;47.506;19.158;2023-08-08T05:33:10;1.25;;;1.08;;
67571;SDS011;54397;47.506;19.158;2023-08-08T05:36:37;1.00;;;1.00;;
67571;SDS011;54397;47.506;19.158;2023-08-08T05:39:58;2.42;;;1.30;;
67571;SDS011;54397;47.506;19.158;2023-08-08T05:43:20;1.92;;;1.00;;
67571;SDS011;54397;47.506;19.158;2023-08-08T05:46:43;1.88;;;1.30;;
67571;SDS011;54397;47.506;19.158;2023-08-08T05:50:05;3.30;;;1.10;;
67571;SDS011;54397;47.506;19.158;2023-08-08T05:53:28;1.20;;;1.10;;
67571;SDS011;54397;47.506;19.158;2023-08-08T05:56:49;5.43;;;1.15;;
67571;SDS011;54397;47.506;19.158;2023-08-08T06:00:14;7.85;;;1.50;;
67571;SDS011;54397;47.506;19.158;2023-08-08T06:03:36;3.00;;;1.15;;
67571;SDS011;54397;47.506;19.158;2023-08-08T06:07:01;2.85;;;1.50;;
67571;SDS011;54397;47.506;19.158;2023-08-08T06:10:30;3.58;;;1.20;;
67571;SDS011;54397;47.506;19.158;2023-08-08T06:13:54;6.65;;;1.60;;
67571;SDS011;54397;47.506;19.158;2023-08-08T06:17:16;2.20;;;1.45;;
67571;SDS011;54397;47.506;19.158;2023-08-08T06:20:37;4.88;;;1.50;;
67571;SDS011;54397;47.506;19.158;2023-08-08T06:23:59;5.45;;;1.90;;
67571;SDS011;54397;47.506;19.158;2023-08-08T06:27:21;9.25;;;1.23;;
67571;SDS011;54397;47.506;19.158;2023-08-08T06:30:42;2.13;;;1.30;;
67571;SDS011;54397;47.506;19.158;2023-08-08T06:34:07;1.20;;;1.10;;
67571;SDS011;54397;47.506;19.158;2023-08-08T06:37:28;2.30;;;1.45;;
67571;SDS011;54397;47.506;19.158;2023-08-08T06:40:53;2.50;;;1.40;;
67571;SDS011;54397;47.506;19.158;2023-08-08T06:44:17;2.47;;;1.25;;
67571;SDS011;54397;47.506;19.158;2023-08-08T06:47:39;1.75;;;1.15;;
67571;SDS011;54397;47.506;19.158;2023-08-08T06:51:04;1.65;;;1.38;;
67571;SDS011;54397;47.506;19.158;2023-08-08T06:54:28;1.40;;;1.10;;
67571;SDS011;54397;47.506;19.158;2023-08-08T06:57:49;5.47;;;1.50;;
67571;SDS011;54397;47.506;19.158;2023-08-08T07:01:11;3.10;;;1.27;;
67571;SDS011;54397;47.506;19.158;2023-08-08T07:04:33;1.30;;;1.20;;
67571;SDS011;54397;47.506;19.158;2023-08-08T07:07:55;2.03;;;1.30;;
67571;SDS011;54397;47.506;19.158;2023-08-08T07:11:19;2.20;;;1.38;;
67571;SDS011;54397;47.506;19.158;2023-08-08T07:14:46;2.20;;;1.30;;
67571;SDS011;54397;47.506;19.158;2023-08-08T07:18:08;1.38;;;1.27;;
67571;SDS011;54397;47.506;19.158;2023-08-08T07:21:32;2.70;;;1.35;;
67571;SDS011;54397;47.506;19.158;2023-08-08T07:24:53;1.67;;;1.20;;
67571;SDS011;54397;47.506;19.158;2023-08-08T07:28:15;4.03;;;1.60;;
67571;SDS011;54397;47.506;19.158;2023-08-08T07:31:39;2.47;;;1.38;;
67571;SDS011;54397;47.506;19.158;2023-08-08T07:35:04;2.88;;;1.40;;
67571;SDS011;54397;47.506;19.158;2023-08-08T07:38:30;3.72;;;1.30;;
67571;SDS011;54397;47.506;19.158;2023-08-08T07:41:52;4.07;;;1.65;;
67571;SDS011;54397;47.506;19.158;2023-08-08T07:45:13;2.85;;;1.75;;
67571;SDS011;54397;47.506;19.158;2023-08-08T07:48:38;7.78;;;1.42;;
67571;SDS011;54397;47.506;19.158;2023-08-08T07:51:59;4.70;;;1.70;;
67571;SDS011;54397;47.506;19.158;2023-08-08T07:55:23;2.55;;;1.40;;
67571;SDS011;54397;47.506;19.158;2023-08-08T07:58:47;2.58;;;1.50;;
67571;SDS011;54397;47.506;19.158;2023-08-08T08:02:09;4.78;;;1.60;;
67571;SDS011;54397;47.506;19.158;2023-08-08T08:05:31;5.18;;;1.40;;
67571;SDS011;54397;47.506;19.158;2023-08-08T08:08:56;3.15;;;1.63;;
67571;SDS011;54397;47.506;19.158;2023-08-08T08:12:20;3.30;;;1.42;;
67571;SDS011;54397;47.506;19.158;2023-08-08T08:15:41;1.95;;;1.30;;
67571;SDS011;54397;47.506;19.158;2023-08-08T08:19:04;1.25;;;1.00;;
67571;SDS011;54397;47.506;19.158;2023-08-08T08:22:25;2.88;;;1.38;;
67571;SDS011;54397;47.506;19.158;2023-08-08T08:25:47;5.13;;;1.80;;
67571;SDS011;54397;47.506;19.158;2023-08-08T08:29:12;4.85;;;2.22;;
67571;SDS011;54397;47.506;19.158;2023-08-08T08:32:34;3.33;;;1.55;;
67571;SDS011;54397;47.506;19.158;2023-08-08T08:35:56;4.32;;;1.48;;
67571;SDS011;54397;47.506;19.158;2023-08-08T08:39:17;5.50;;;1.50;;
67571;SDS011;54397;47.506;19.158;2023-08-08T08:42:44;2.47;;;1.20;;
67571;SDS011;54397;47.506;19.158;2023-08-08T08:46:07;4.53;;;1.70;;
67571;SDS011;54397;47.506;19.158;2023-08-08T08:49:34;2.58;;;1.45;;
67571;SDS011;54397;47.506;19.158;2023-08-08T08:52:57;1.52;;;1.10;;
67571;SDS011;54397;47.506;19.158;2023-08-08T08:56:23;2.13;;;1.40;;
67571;SDS011;54397;47.506;19.158;2023-08-08T08:59:45;5.30;;;1.98;;
67571;SDS011;54397;47.506;19.158;2023-08-08T09:03:07;4.78;;;1.70;;
67571;SDS011;54397;47.506;19.158;2023-08-08T09:06:31;3.20;;;1.20;;
67571;SDS011;54397;47.506;19.158;2023-08-08T09:09:56;3.30;;;1.70;;
67571;SDS011;54397;47.506;19.158;2023-08-08T09:13:18;4.05;;;1.60;;
67571;SDS011;54397;47.506;19.158;2023-08-08T09:16:40;2.25;;;1.50;;
67571;SDS011;54397;47.506;19.158;2023-08-08T09:20:02;2.33;;;1.35;;
67571;SDS011;54397;47.506;19.158;2023-08-08T09:23:25;2.78;;;1.55;;
67571;SDS011;54397;47.506;19.158;2023-08-08T09:26:47;1.67;;;1.50;;
67571;SDS011;54397;47.506;19.158;2023-08-08T09:30:11;2.67;;;1.52;;
67571;SDS011;54397;47.506;19.158;2023-08-08T09:33:33;3.67;;;1.30;;
67571;SDS011;54397;47.506;19.158;2023-08-08T09:36:54;3.67;;;1.40;;
67571;SDS011;54397;47.506;19.158;2023-08-08T09:40:18;7.03;;;1.38;;
67571;SDS011;54397;47.506;19.158;2023-08-08T09:43:43;2.33;;;1.48;;
67571;SDS011;54397;47.506;19.158;2023-08-08T09:47:11;5.72;;;1.75;;
67571;SDS011;54397;47.506;19.158;2023-08-08T09:50:34;2.30;;;1.60;;
67571;SDS011;54397;47.506;19.158;2023-08-08T09:53:59;3.75;;;1.73;;
67571;SDS011;54397;47.506;19.158;2023-08-08T09:57:24;1.50;;;1.25;;
67571;SDS011;54397;47.506;19.158;2023-08-08T10:00:49;2.63;;;1.27;;
67571;SDS011;54397;47.506;19.158;2023-08-08T10:04:12;2.75;;;1.42;;
67571;SDS011;54397;47.506;19.158;2023-08-08T10:07:36;3.10;;;1.60;;
67571;SDS011;54397;47.506;19.158;2023-08-08T10:11:00;3.13;;;1.15;;
67571;SDS011;54397;47.506;19.158;2023-08-08T10:14:28;2.35;;;1.42;;
67571;SDS011;54397;47.506;19.158;2023-08-08T10:17:56;2.55;;;1.40;;
67571;SDS011;54397;47.506;19.158;2023-08-08T10:21:19;1.95;;;1.60;;
67571;SDS011;54397;47.506;19.158;2023-08-08T10:24:46;2.28;;;1.30;;
67571;SDS011;54397;47.506;19.158;2023-08-08T10:28:11;1.92;;;1.33;;
67571;SDS011;54397;47.506;19.158;2023-08-08T10:35:02;2.47;;;1.55;;
67571;SDS011;54397;47.506;19.158;2023-08-08T10:38:25;1.30;;;1.10;;
67571;SDS011;54397;47.506;19.158;2023-08-08T10:41:48;1.98;;;1.20;;
67571;SDS011;54397;47.506;19.158;2023-08-08T10:45:12;2.42;;;1.58;;
67571;SDS011;54397;47.506;19.158;2023-08-08T10:48:35;2.53;;;1.30;;
67571;SDS011;54397;47.506;19.158;2023-08-08T10:52:01;5.03;;;1.40;;
67571;SDS011;54397;47.506;19.158;2023-08-08T10:55:25;4.60;;;1.35;;
67571;SDS011;54397;47.506;19.158;2023-08-08T10:58:49;3.10;;;1.40;;
67571;SDS011;54397;47.506;19.158;2023-08-08T11:02:11;3.38;;;1.40;;
67571;SDS011;54397;47.506;19.158;2023-08-08T11:05:37;2.10;;;1.40;;
67571;SDS011;54397;47.506;19.158;2023-08-08T11:09:00;3.67;;;1.50;;
67571;SDS011;54397;47.506;19.158;2023-08-08T11:12:22;2.63;;;1.17;;
67571;SDS011;54397;47.506;19.158;2023-08-08T11:15:50;1.33;;;1.20;;
67571;SDS011;54397;47.506;19.158;2023-08-08T11:19:12;5.25;;;1.25;;
67571;SDS011;54397;47.506;19.158;2023-08-08T11:22:34;3.92;;;1.67;;
67571;SDS011;54397;47.506;19.158;2023-08-08T11:25:57;1.65;;;1.33;;
67571;SDS011;54397;47.506;19.158;2023-08-08T11:29:22;2.22;;;1.30;;
67571;SDS011;54397;47.506;19.158;2023-08-08T11:32:48;1.38;;;1.25;;
67571;SDS011;54397;47.506;19.158;2023-08-08T11:36:34;1.30;;;1.20;;
67571;SDS011;54397;47.506;19.158;2023-08-08T11:39:56;4.68;;;1.77;;
67571;SDS011;54397;47.506;19.158;2023-08-08T11:43:18;1.98;;;1.50;;
67571;SDS011;54397;47.506;19.158;2023-08-08T11:46:44;2.63;;;1.50;;
67571;SDS011;54397;47.506;19.158;2023-08-08T11:50:08;1.70;;;1.40;;
67571;SDS011;54397;47.506;19.158;2023-08-08T11:53:36;2.33;;;1.92;;
67571;SDS011;54397;47.506;19.158;2023-08-08T11:57:09;1.80;;;1.42;;
67571;SDS011;54397;47.506;19.158;2023-08-08T12:00:31;2.58;;;1.17;;
67571;SDS011;54397;47.506;19.158;2023-08-08T12:03:55;3.38;;;1.50;;
67571;SDS011;54397;47.506;19.158;2023-08-08T12:07:17;2.00;;;1.38;;
67571;SDS011;54397;47.506;19.158;2023-08-08T12:10:39;2.40;;;1.40;;
67571;SDS011;54397;47.506;19.158;2023-08-08T12:14:06;2.17;;;1.33;;
67571;SDS011;54397;47.506;19.158;2023-08-08T12:17:31;2.25;;;1.73;;
67571;SDS011;54397;47.506;19.158;2023-08-08T12:20:53;3.67;;;1.55;;
67571;SDS011;54397;47.506;19.158;2023-08-08T12:24:14;4.93;;;1.50;;
67571;SDS011;54397;47.506;19.158;2023-08-08T12:27:36;3.15;;;1.23;;
67571;SDS011;54397;47.506;19.158;2023-08-08T12:31:01;2.58;;;1.50;;
67571;SDS011;54397;47.506;19.158;2023-08-08T12:34:25;3.22;;;1.52;;
67571;SDS011;54397;47.506;19.158;2023-08-08T12:37:49;1.75;;;1.30;;
67571;SDS011;54397;47.506;19.158;2023-08-08T12:41:15;1.65;;;1.50;;
67571;SDS011;54397;47.506;19.158;2023-08-08T12:44:37;1.45;;;1.25;;
67571;SDS011;54397;47.506;19.158;2023-08-08T12:47:58;1.73;;;1.30;;
67571;SDS011;54397;47.506;19.158;2023-08-08T12:51:20;2.17;;;1.70;;
67571;SDS011;54397;47.506;19.158;2023-08-08T12:54:44;2.75;;;1.30;;
67571;SDS011;54397;47.506;19.158;2023-08-08T12:58:08;1.40;;;1.30;;
67571;SDS011;54397;47.506;19.158;2023-08-08T13:01:30;1.63;;;1.30;;
67571;SDS011;54397;47.506;19.158;2023-08-08T13:04:54;1.55;;;1.45;;
67571;SDS011;54397;47.506;19.158;2023-08-08T13:08:16;3.15;;;1.30;;
67571;SDS011;54397;47.506;19.158;2023-08-08T13:11:40;2.95;;;1.50;;
67571;SDS011;54397;47.506;19.158;2023-08-08T13:15:03;1.73;;;1.40;;
67571;SDS011;54397;47.506;19.158;2023-08-08T13:18:29;1.70;;;1.10;;
67571;SDS011;54397;47.506;19.158;2023-08-08T13:21:53;2.88;;;1.40;;
67571;SDS011;54397;47.506;19.158;2023-08-08T13:25:15;3.20;;;1.17;;
67571;SDS011;54397;47.506;19.158;2023-08-08T13:28:42;2.72;;;1.42;;
67571;SDS011;54397;47.506;19.158;2023-08-08T13:32:06;2.50;;;1.52;;
67571;SDS011;54397;47.506;19.158;2023-08-08T13:35:28;1.98;;;1.40;;
67571;SDS011;54397;47.506;19.158;2023-08-08T13:38:52;4.55;;;1.45;;
67571;SDS011;54397;47.506;19.158;2023-08-08T13:42:15;1.65;;;1.10;;
67571;SDS011;54397;47.506;19.158;2023-08-08T13:45:37;1.75;;;1.20;;
67571;SDS011;54397;47.506;19.158;2023-08-08T13:48:59;4.13;;;1.33;;
67571;SDS011;54397;47.506;19.158;2023-08-08T13:52:20;2.25;;;1.38;;
67571;SDS011;54397;47.506;19.158;2023-08-08T13:55:42;1.30;;;1.20;;
67571;SDS011;54397;47.506;19.158;2023-08-08T13:59:05;1.00;;;0.90;;
67571;SDS011;54397;47.506;19.158;2023-08-08T14:02:29;1.45;;;1.35;;
67571;SDS011;54397;47.506;19.158;2023-08-08T14:05:54;2.40;;;1.27;;
67571;SDS011;54397;47.506;19.158;2023-08-08T14:09:15;1.25;;;1.15;;
67571;SDS011;54397;47.506;19.158;2023-08-08T14:12:40;2.15;;;1.30;;
67571;SDS011;54397;47.506;19.158;2023-08-08T14:16:02;1.98;;;1.38;;
67571;SDS011;54397;47.506;19.158;2023-08-08T14:19:24;2.28;;;1.38;;
67571;SDS011;54397;47.506;19.158;2023-08-08T14:22:46;1.73;;;1.30;;
67571;SDS011;54397;47.506;19.158;2023-08-08T14:26:08;2.15;;;1.30;;
67571;SDS011;54397;47.506;19.158;2023-08-08T14:29:30;1.40;;;1.30;;
67571;SDS011;54397;47.506;19.158;2023-08-08T14:32:54;1.30;;;1.20;;
67571;SDS011;54397;47.506;19.158;2023-08-08T14:36:16;1.52;;;1.27;;
67571;SDS011;54397;47.506;19.158;2023-08-08T14:39:40;1.63;;;1.42;;
67571;SDS011;54397;47.506;19.158;2023-08-08T14:43:04;2.20;;;1.40;;
67571;SDS011;54397;47.506;19.158;2023-08-08T14:46:31;1.40;;;1.10;;
67571;SDS011;54397;47.506;19.158;2023-08-08T14:49:57;1.65;;;1.40;;
67571;SDS011;54397;47.506;19.158;2023-08-08T14:53:19;1.50;;;1.30;;
67571;SDS011;54397;47.506;19.158;2023-08-08T14:56:41;3.25;;;1.40;;
67571;SDS011;54397;47.506;19.158;2023-08-08T15:00:05;1.58;;;1.17;;
67571;SDS011;54397;47.506;19.158;2023-08-08T15:03:30;1.67;;;1.20;;
67571;SDS011;54397;47.506;19.158;2023-08-08T15:06:52;1.45;;;1.30;;
67571;SDS011;54397;47.506;19.158;2023-08-08T15:10:16;1.23;;;1.10;;
67571;SDS011;54397;47.506;19.158;2023-08-08T15:13:37;2.20;;;1.15;;
67571;SDS011;54397;47.506;19.158;2023-08-08T15:16:59;2.97;;;1.55;;
67571;SDS011;54397;47.506;19.158;2023-08-08T15:20:21;2.40;;;1.30;;
67571;SDS011;54397;47.506;19.158;2023-08-08T15:23:43;3.72;;;1.00;;
67571;SDS011;54397;47.506;19.158;2023-08-08T15:27:07;1.48;;;1.38;;
67571;SDS011;54397;47.506;19.158;2023-08-08T15:30:29;2.65;;;1.10;;
67571;SDS011;54397;47.506;19.158;2023-08-08T15:33:54;4.53;;;1.77;;
67571;SDS011;54397;47.506;19.158;2023-08-08T15:37:18;1.70;;;1.10;;
67571;SDS011;54397;47.506;19.158;2023-08-08T15:40:42;1.20;;;1.20;;
67571;SDS011;54397;47.506;19.158;2023-08-08T15:44:04;1.35;;;1.25;;
67571;SDS011;54397;47.506;19.158;2023-08-08T15:47:25;2.17;;;1.23;;
67571;SDS011;54397;47.506;19.158;2023-08-08T15:50:47;1.38;;;1.13;;
67571;SDS011;54397;47.506;19.158;2023-08-08T15:54:08;2.22;;;1.30;;
67571;SDS011;54397;47.506;19.158;2023-08-08T15:57:31;1.58;;;1.27;;
67571;SDS011;54397;47.506;19.158;2023-08-08T16:00:55;3.13;;;1.52;;
67571;SDS011;54397;47.506;19.158;2023-08-08T16:04:17;1.88;;;1.33;;
67571;SDS011;54397;47.506;19.158;2023-08-08T16:07:39;1.45;;;1.20;;
67571;SDS011;54397;47.506;19.158;2023-08-08T16:11:01;3.47;;;1.58;;
67571;SDS011;54397;47.506;19.158;2023-08-08T16:14:24;1.40;;;1.30;;
67571;SDS011;54397;47.506;19.158;2023-08-08T16:17:51;2.60;;;1.40;;
67571;SDS011;54397;47.506;19.158;2023-08-08T16:21:13;1.30;;;1.20;;
67571;SDS011;54397;47.506;19.158;2023-08-08T16:24:37;2.15;;;1.15;;
67571;SDS011;54397;47.506;19.158;2023-08-08T16:27:59;3.47;;;1.50;;
67571;SDS011;54397;47.506;19.158;2023-08-08T16:31:24;3.42;;;1.40;;
67571;SDS011;54397;47.506;19.158;2023-08-08T16:34:48;2.15;;;1.27;;
67571;SDS011;54397;47.506;19.158;2023-08-08T16:38:10;2.83;;;1.63;;
67571;SDS011;54397;47.506;19.158;2023-08-08T16:41:35;3.10;;;2.67;;
67571;SDS011;54397;47.506;19.158;2023-08-08T16:45:01;2.20;;;1.90;;
67571;SDS011;54397;47.506;19.158;2023-08-08T16:48:24;2.10;;;1.23;;
67571;SDS011;54397;47.506;19.158;2023-08-08T16:51:50;6.18;;;1.70;;
67571;SDS011;54397;47.506;19.158;2023-08-08T16:55:11;62.25;;;4.65;;
67571;SDS011;54397;47.506;19.158;2023-08-08T16:58:34;45.30;;;4.25;;
67571;SDS011;54397;47.506;19.158;2023-08-08T17:01:55;25.33;;;2.05;;
67571;SDS011;54397;47.506;19.158;2023-08-08T17:05:20;10.65;;;1.55;;
67571;SDS011;54397;47.506;19.158;2023-08-08T17:08:42;3.10;;;1.30;;
67571;SDS011;54397;47.506;19.158;2023-08-08T17:12:04;1.35;;;1.23;;
67571;SDS011;54397;47.506;19.158;2023-08-08T17:15:28;1.48;;;1.30;;
67571;SDS011;54397;47.506;19.158;2023-08-08T17:18:50;5.10;;;2.13;;
67571;SDS011;54397;47.506;19.158;2023-08-08T17:22:13;2.28;;;1.58;;
67571;SDS011;54397;47.506;19.158;2023-08-08T17:25:36;3.05;;;1.55;;
67571;SDS011;54397;47.506;19.158;2023-08-08T17:28:58;3.33;;;1.80;;
67571;SDS011;54397;47.506;19.158;2023-08-08T17:32:19;2.63;;;1.75;;
67571;SDS011;54397;47.506;19.158;2023-08-08T17:35:43;4.63;;;1.67;;
67571;SDS011;54397;47.506;19.158;2023-08-08T17:39:08;4.88;;;2.38;;
67571;SDS011;54397;47.506;19.158;2023-08-08T17:42:30;3.42;;;2.00;;
67571;SDS011;54397;47.506;19.158;2023-08-08T17:45:51;2.90;;;1.48;;
67571;SDS011;54397;47.506;19.158;2023-08-08T17:49:15;3.58;;;2.03;;
67571;SDS011;54397;47.506;19.158;2023-08-08T17:52:37;7.60;;;2.03;;
67571;SDS011;54397;47.506;19.158;2023-08-08T17:55:59;5.28;;;2.75;;
67571;SDS011;54397;47.506;19.158;2023-08-08T17:59:21;8.43;;;2.92;;
67571;SDS011;54397;47.506;19.158;2023-08-08T18:02:46;7.40;;;2.55;;
67571;SDS011;54397;47.506;19.158;2023-08-08T18:06:08;3.72;;;2.20;;
67571;SDS011;54397;47.506;19.158;2023-08-08T18:09:30;6.75;;;2.00;;
67571;SDS011;54397;47.506;19.158;2023-08-08T18:12:52;5.25;;;2.10;;
67571;SDS011;54397;47.506;19.158;2023-08-08T18:16:17;4.03;;;2.58;;
67571;SDS011;54397;47.506;19.158;2023-08-08T18:19:38;6.55;;;2.35;;
67571;SDS011;54397;47.506;19.158;2023-08-08T18:23:00;7.47;;;2.25;;
67571;SDS011;54397;47.506;19.158;2023-08-08T18:26:24;3.75;;;2.35;;
67571;SDS011;54397;47.506;19.158;2023-08-08T18:29:47;7.28;;;2.38;;
67571;SDS011;54397;47.506;19.158;2023-08-08T18:33:10;4.85;;;2.65;;
67571;SDS011;54397;47.506;19.158;2023-08-08T18:36:36;4.05;;;2.13;;
67571;SDS011;54397;47.506;19.158;2023-08-08T18:39:58;5.57;;;2.60;;
67571;SDS011;54397;47.506;19.158;2023-08-08T18:43:19;8.02;;;2.80;;
67571;SDS011;54397;47.506;19.158;2023-08-08T18:46:43;11.30;;;2.72;;
67571;SDS011;54397;47.506;19.158;2023-08-08T18:50:08;3.45;;;2.47;;
67571;SDS011;54397;47.506;19.158;2023-08-08T18:53:30;10.93;;;3.05;;
67571;SDS011;54397;47.506;19.158;2023-08-08T18:56:51;7.60;;;2.63;;
67571;SDS011;54397;47.506;19.158;2023-08-08T19:00:13;3.00;;;2.30;;
67571;SDS011;54397;47.506;19.158;2023-08-08T19:03:35;5.45;;;2.40;;
67571;SDS011;54397;47.506;19.158;2023-08-08T19:06:57;4.30;;;2.28;;
67571;SDS011;54397;47.506;19.158;2023-08-08T19:10:20;4.03;;;1.98;;
67571;SDS011;54397;47.506;19.158;2023-08-08T19:13:43;3.90;;;2.00;;
67571;SDS011;54397;47.506;19.158;2023-08-08T19:17:07;5.45;;;2.30;;
67571;SDS011;54397;47.506;19.158;2023-08-08T19:20:29;3.90;;;1.80;;
67571;SDS011;54397;47.506;19.158;2023-08-08T19:23:51;3.47;;;1.85;;
67571;SDS011;54397;47.506;19.158;2023-08-08T19:27:16;3.15;;;2.40;;
67571;SDS011;54397;47.506;19.158;2023-08-08T19:30:40;6.30;;;2.60;;
67571;SDS011;54397;47.506;19.158;2023-08-08T19:34:02;7.22;;;2.50;;
67571;SDS011;54397;47.506;19.158;2023-08-08T19:37:27;5.63;;;2.80;;
67571;SDS011;54397;47.506;19.158;2023-08-08T19:40:52;4.85;;;2.50;;
67571;SDS011;54397;47.506;19.158;2023-08-08T19:44:15;7.68;;;2.83;;
67571;SDS011;54397;47.506;19.158;2023-08-08T19:47:37;8.43;;;2.70;;
67571;SDS011;54397;47.506;19.158;2023-08-08T19:51:01;3.50;;;2.22;;
67571;SDS011;54397;47.506;19.158;2023-08-08T19:54:23;3.75;;;2.30;;
67571;SDS011;54397;47.506;19.158;2023-08-08T19:57:45;4.53;;;2.40;;
67571;SDS011;54397;47.506;19.158;2023-08-08T20:01:07;2.92;;;2.00;;
67571;SDS011;54397;47.506;19.158;2023-08-08T20:04:28;5.75;;;2.55;;
67571;SDS011;54397;47.506;19.158;2023-08-08T20:07:53;5.25;;;2.80;;